Gross, Kansas
Current Conditions -  °F | °C
As of 1:55 PM on Wednesday 26 Nov 2014 (Local Time) from KPTS Reporting Station
Overcast Overcast  
Wind Chill: 45°   Ceiling: 6000
Heat Index: 49°   Visibility: 10mi
Dew Point: 29°   Wind: 10mph
Humidity: 46%   Direction: 300°WNW
Pressure: 30.07"   Gusts: 24mph
Location:  37.6277°N, 94.7013°W
Report Text: KPTS 261955Z AUTO 30009G21KT 10SM OVC060 10/M01 A3007 RMK AO2 T00961015
Loading
Personal Weather Stations






























Interactive Weather Map New forecast layout! Learn more

10-Day Weather Forecast

Advertisements
Track Severe Weather on mobile